sensor_id;sensor_type;location;lat;lon;timestamp;P1;durP1;ratioP1;P2;durP2;ratioP2
72569;SDS011;60594;50.204;8.844;2023-05-07T00:02:25;3.83;;;2.10;;
72569;SDS011;60594;50.204;8.844;2023-05-07T00:04:51;5.50;;;1.83;;
72569;SDS011;60594;50.204;8.844;2023-05-07T00:07:18;6.20;;;1.98;;
72569;SDS011;60594;50.204;8.844;2023-05-07T00:09:44;4.28;;;1.75;;
72569;SDS011;60594;50.204;8.844;2023-05-07T00:12:11;3.60;;;1.83;;
72569;SDS011;60594;50.204;8.844;2023-05-07T00:14:37;5.22;;;2.33;;
72569;SDS011;60594;50.204;8.844;2023-05-07T00:17:04;5.57;;;2.10;;
72569;SDS011;60594;50.204;8.844;2023-05-07T00:19:30;3.95;;;2.08;;
72569;SDS011;60594;50.204;8.844;2023-05-07T00:21:56;4.35;;;2.15;;
72569;SDS011;60594;50.204;8.844;2023-05-07T00:24:24;4.65;;;1.88;;
72569;SDS011;60594;50.204;8.844;2023-05-07T00:26:50;4.10;;;2.08;;
72569;SDS011;60594;50.204;8.844;2023-05-07T00:29:18;3.60;;;1.90;;
72569;SDS011;60594;50.204;8.844;2023-05-07T00:31:45;3.92;;;2.03;;
72569;SDS011;60594;50.204;8.844;2023-05-07T00:34:11;3.85;;;2.40;;
72569;SDS011;60594;50.204;8.844;2023-05-07T00:36:37;4.25;;;2.00;;
72569;SDS011;60594;50.204;8.844;2023-05-07T00:39:04;4.30;;;1.98;;
72569;SDS011;60594;50.204;8.844;2023-05-07T00:41:30;4.10;;;1.77;;
72569;SDS011;60594;50.204;8.844;2023-05-07T00:43:57;4.22;;;2.03;;
72569;SDS011;60594;50.204;8.844;2023-05-07T00:46:24;5.20;;;1.92;;
72569;SDS011;60594;50.204;8.844;2023-05-07T00:48:50;4.60;;;1.90;;
72569;SDS011;60594;50.204;8.844;2023-05-07T00:51:17;3.83;;;1.80;;
72569;SDS011;60594;50.204;8.844;2023-05-07T00:53:44;4.25;;;1.67;;
72569;SDS011;60594;50.204;8.844;2023-05-07T00:56:12;3.30;;;1.70;;
72569;SDS011;60594;50.204;8.844;2023-05-07T00:58:39;4.35;;;1.95;;
72569;SDS011;60594;50.204;8.844;2023-05-07T01:01:06;4.53;;;2.20;;
72569;SDS011;60594;50.204;8.844;2023-05-07T01:03:34;3.78;;;2.08;;
72569;SDS011;60594;50.204;8.844;2023-05-07T01:06:01;4.68;;;1.92;;
72569;SDS011;60594;50.204;8.844;2023-05-07T01:08:30;4.10;;;1.80;;
72569;SDS011;60594;50.204;8.844;2023-05-07T01:10:57;4.57;;;2.05;;
72569;SDS011;60594;50.204;8.844;2023-05-07T01:13:25;3.80;;;1.90;;
72569;SDS011;60594;50.204;8.844;2023-05-07T01:15:53;3.70;;;1.90;;
72569;SDS011;60594;50.204;8.844;2023-05-07T01:18:20;4.80;;;1.90;;
72569;SDS011;60594;50.204;8.844;2023-05-07T01:20:47;4.20;;;1.98;;
72569;SDS011;60594;50.204;8.844;2023-05-07T01:23:14;5.50;;;2.42;;
72569;SDS011;60594;50.204;8.844;2023-05-07T01:25:42;4.68;;;2.35;;
72569;SDS011;60594;50.204;8.844;2023-05-07T01:28:09;4.05;;;2.08;;
72569;SDS011;60594;50.204;8.844;2023-05-07T01:30:38;4.32;;;2.05;;
72569;SDS011;60594;50.204;8.844;2023-05-07T01:33:09;4.32;;;1.98;;
72569;SDS011;60594;50.204;8.844;2023-05-07T01:35:40;6.15;;;1.88;;
72569;SDS011;60594;50.204;8.844;2023-05-07T01:38:09;4.75;;;2.00;;
72569;SDS011;60594;50.204;8.844;2023-05-07T01:40:36;3.83;;;2.00;;
72569;SDS011;60594;50.204;8.844;2023-05-07T01:43:02;3.80;;;1.85;;
72569;SDS011;60594;50.204;8.844;2023-05-07T01:45:30;5.05;;;1.80;;
72569;SDS011;60594;50.204;8.844;2023-05-07T01:48:00;4.10;;;2.10;;
72569;SDS011;60594;50.204;8.844;2023-05-07T01:50:29;4.55;;;2.28;;
72569;SDS011;60594;50.204;8.844;2023-05-07T01:52:56;3.92;;;1.95;;
72569;SDS011;60594;50.204;8.844;2023-05-07T01:55:23;3.55;;;1.60;;
72569;SDS011;60594;50.204;8.844;2023-05-07T01:57:50;4.55;;;1.85;;
72569;SDS011;60594;50.204;8.844;2023-05-07T02:00:17;3.55;;;1.90;;
72569;SDS011;60594;50.204;8.844;2023-05-07T02:02:44;3.80;;;2.00;;
72569;SDS011;60594;50.204;8.844;2023-05-07T02:05:23;4.10;;;2.17;;
72569;SDS011;60594;50.204;8.844;2023-05-07T02:07:57;3.90;;;1.85;;
72569;SDS011;60594;50.204;8.844;2023-05-07T02:10:24;3.67;;;1.90;;
72569;SDS011;60594;50.204;8.844;2023-05-07T02:12:50;3.95;;;2.00;;
72569;SDS011;60594;50.204;8.844;2023-05-07T02:15:17;5.25;;;2.00;;
72569;SDS011;60594;50.204;8.844;2023-05-07T02:18:02;4.38;;;2.00;;
72569;SDS011;60594;50.204;8.844;2023-05-07T02:20:30;3.47;;;1.80;;
72569;SDS011;60594;50.204;8.844;2023-05-07T02:22:57;4.57;;;1.90;;
72569;SDS011;60594;50.204;8.844;2023-05-07T02:25:24;4.10;;;1.90;;
72569;SDS011;60594;50.204;8.844;2023-05-07T02:27:50;3.90;;;1.80;;
72569;SDS011;60594;50.204;8.844;2023-05-07T02:30:18;3.97;;;1.90;;
72569;SDS011;60594;50.204;8.844;2023-05-07T02:32:47;4.85;;;2.00;;
72569;SDS011;60594;50.204;8.844;2023-05-07T02:35:14;4.85;;;1.80;;
72569;SDS011;60594;50.204;8.844;2023-05-07T02:37:40;3.72;;;1.88;;
72569;SDS011;60594;50.204;8.844;2023-05-07T02:40:07;4.93;;;2.10;;
72569;SDS011;60594;50.204;8.844;2023-05-07T02:42:34;3.85;;;1.85;;
72569;SDS011;60594;50.204;8.844;2023-05-07T02:45:01;5.80;;;2.20;;
72569;SDS011;60594;50.204;8.844;2023-05-07T02:47:29;4.18;;;1.83;;
72569;SDS011;60594;50.204;8.844;2023-05-07T02:49:58;5.28;;;2.30;;
72569;SDS011;60594;50.204;8.844;2023-05-07T02:52:25;4.07;;;1.98;;
72569;SDS011;60594;50.204;8.844;2023-05-07T02:54:51;4.32;;;1.85;;
72569;SDS011;60594;50.204;8.844;2023-05-07T02:57:18;4.05;;;1.98;;
72569;SDS011;60594;50.204;8.844;2023-05-07T02:59:44;4.10;;;1.80;;
72569;SDS011;60594;50.204;8.844;2023-05-07T03:04:39;6.03;;;1.80;;
72569;SDS011;60594;50.204;8.844;2023-05-07T03:07:05;4.53;;;1.90;;
72569;SDS011;60594;50.204;8.844;2023-05-07T03:09:33;3.72;;;1.75;;
72569;SDS011;60594;50.204;8.844;2023-05-07T03:11:59;4.10;;;2.00;;
72569;SDS011;60594;50.204;8.844;2023-05-07T03:14:28;3.65;;;2.38;;
72569;SDS011;60594;50.204;8.844;2023-05-07T03:16:54;5.10;;;2.58;;
72569;SDS011;60594;50.204;8.844;2023-05-07T03:19:21;3.88;;;2.42;;
72569;SDS011;60594;50.204;8.844;2023-05-07T03:21:47;4.80;;;2.40;;
72569;SDS011;60594;50.204;8.844;2023-05-07T03:24:14;4.07;;;2.00;;
72569;SDS011;60594;50.204;8.844;2023-05-07T03:26:40;5.55;;;2.30;;
72569;SDS011;60594;50.204;8.844;2023-05-07T03:29:07;4.40;;;2.13;;
72569;SDS011;60594;50.204;8.844;2023-05-07T03:31:33;4.38;;;1.98;;
72569;SDS011;60594;50.204;8.844;2023-05-07T03:34:01;4.68;;;2.33;;
72569;SDS011;60594;50.204;8.844;2023-05-07T03:36:27;3.70;;;2.00;;
72569;SDS011;60594;50.204;8.844;2023-05-07T03:38:55;4.65;;;1.80;;
72569;SDS011;60594;50.204;8.844;2023-05-07T03:41:25;4.25;;;2.00;;
72569;SDS011;60594;50.204;8.844;2023-05-07T03:43:52;3.70;;;1.92;;
72569;SDS011;60594;50.204;8.844;2023-05-07T03:46:18;4.20;;;2.00;;
72569;SDS011;60594;50.204;8.844;2023-05-07T03:48:45;4.40;;;2.40;;
72569;SDS011;60594;50.204;8.844;2023-05-07T03:51:13;4.30;;;2.10;;
72569;SDS011;60594;50.204;8.844;2023-05-07T03:53:40;4.10;;;2.20;;
72569;SDS011;60594;50.204;8.844;2023-05-07T03:56:06;4.28;;;2.30;;
72569;SDS011;60594;50.204;8.844;2023-05-07T03:58:37;4.55;;;2.33;;
72569;SDS011;60594;50.204;8.844;2023-05-07T04:01:08;5.38;;;2.30;;
72569;SDS011;60594;50.204;8.844;2023-05-07T04:03:35;5.13;;;2.22;;
72569;SDS011;60594;50.204;8.844;2023-05-07T04:06:01;4.13;;;2.22;;
72569;SDS011;60594;50.204;8.844;2023-05-07T04:08:28;3.83;;;2.15;;
72569;SDS011;60594;50.204;8.844;2023-05-07T04:10:55;4.10;;;1.95;;
72569;SDS011;60594;50.204;8.844;2023-05-07T04:13:29;4.75;;;2.15;;
72569;SDS011;60594;50.204;8.844;2023-05-07T04:15:55;4.43;;;2.00;;
72569;SDS011;60594;50.204;8.844;2023-05-07T04:18:22;4.68;;;2.00;;
72569;SDS011;60594;50.204;8.844;2023-05-07T04:20:49;4.97;;;2.10;;
72569;SDS011;60594;50.204;8.844;2023-05-07T04:23:16;4.55;;;2.35;;
72569;SDS011;60594;50.204;8.844;2023-05-07T04:25:43;5.10;;;2.63;;
72569;SDS011;60594;50.204;8.844;2023-05-07T04:28:23;5.13;;;2.67;;
72569;SDS011;60594;50.204;8.844;2023-05-07T04:30:50;5.45;;;2.30;;
72569;SDS011;60594;50.204;8.844;2023-05-07T04:33:17;4.32;;;2.10;;
72569;SDS011;60594;50.204;8.844;2023-05-07T04:35:45;5.78;;;2.28;;
72569;SDS011;60594;50.204;8.844;2023-05-07T04:38:12;5.00;;;2.47;;
72569;SDS011;60594;50.204;8.844;2023-05-07T04:40:38;5.25;;;2.13;;
72569;SDS011;60594;50.204;8.844;2023-05-07T04:43:07;5.05;;;2.33;;
72569;SDS011;60594;50.204;8.844;2023-05-07T04:45:40;5.03;;;2.50;;
72569;SDS011;60594;50.204;8.844;2023-05-07T04:48:11;4.28;;;2.00;;
72569;SDS011;60594;50.204;8.844;2023-05-07T04:50:39;4.28;;;2.20;;
72569;SDS011;60594;50.204;8.844;2023-05-07T04:53:07;4.50;;;2.50;;
72569;SDS011;60594;50.204;8.844;2023-05-07T04:55:34;5.85;;;2.50;;
72569;SDS011;60594;50.204;8.844;2023-05-07T04:58:01;4.80;;;2.03;;
72569;SDS011;60594;50.204;8.844;2023-05-07T05:00:30;3.95;;;2.00;;
72569;SDS011;60594;50.204;8.844;2023-05-07T05:02:57;4.10;;;2.10;;
72569;SDS011;60594;50.204;8.844;2023-05-07T05:05:24;4.32;;;2.35;;
72569;SDS011;60594;50.204;8.844;2023-05-07T05:07:53;4.68;;;2.28;;
72569;SDS011;60594;50.204;8.844;2023-05-07T05:10:20;4.55;;;2.38;;
72569;SDS011;60594;50.204;8.844;2023-05-07T05:12:49;5.22;;;2.53;;
72569;SDS011;60594;50.204;8.844;2023-05-07T05:15:16;5.22;;;2.53;;
72569;SDS011;60594;50.204;8.844;2023-05-07T05:17:43;4.50;;;2.47;;
72569;SDS011;60594;50.204;8.844;2023-05-07T05:20:10;5.20;;;2.60;;
72569;SDS011;60594;50.204;8.844;2023-05-07T05:22:38;4.55;;;2.47;;
72569;SDS011;60594;50.204;8.844;2023-05-07T05:25:07;5.20;;;2.35;;
72569;SDS011;60594;50.204;8.844;2023-05-07T05:27:40;3.90;;;2.03;;
72569;SDS011;60594;50.204;8.844;2023-05-07T05:30:08;5.00;;;2.28;;
72569;SDS011;60594;50.204;8.844;2023-05-07T05:32:36;5.82;;;2.58;;
72569;SDS011;60594;50.204;8.844;2023-05-07T05:35:04;4.47;;;2.22;;
72569;SDS011;60594;50.204;8.844;2023-05-07T05:37:32;3.78;;;2.10;;
72569;SDS011;60594;50.204;8.844;2023-05-07T05:40:03;5.32;;;2.60;;
72569;SDS011;60594;50.204;8.844;2023-05-07T05:42:31;4.03;;;2.28;;
72569;SDS011;60594;50.204;8.844;2023-05-07T05:44:58;5.47;;;2.30;;
72569;SDS011;60594;50.204;8.844;2023-05-07T05:47:29;4.63;;;2.30;;
72569;SDS011;60594;50.204;8.844;2023-05-07T05:49:58;4.53;;;2.58;;
72569;SDS011;60594;50.204;8.844;2023-05-07T05:52:26;4.85;;;2.20;;
72569;SDS011;60594;50.204;8.844;2023-05-07T05:54:54;5.18;;;2.42;;
72569;SDS011;60594;50.204;8.844;2023-05-07T05:57:21;4.07;;;2.17;;
72569;SDS011;60594;50.204;8.844;2023-05-07T05:59:47;4.68;;;2.60;;
72569;SDS011;60594;50.204;8.844;2023-05-07T06:02:14;4.63;;;2.50;;
72569;SDS011;60594;50.204;8.844;2023-05-07T06:04:41;4.78;;;2.92;;
72569;SDS011;60594;50.204;8.844;2023-05-07T06:09:36;5.72;;;2.35;;
72569;SDS011;60594;50.204;8.844;2023-05-07T06:12:03;5.10;;;2.40;;
72569;SDS011;60594;50.204;8.844;2023-05-07T06:14:31;4.20;;;2.35;;
72569;SDS011;60594;50.204;8.844;2023-05-07T06:16:58;4.32;;;2.53;;
72569;SDS011;60594;50.204;8.844;2023-05-07T06:19:24;4.60;;;2.78;;
72569;SDS011;60594;50.204;8.844;2023-05-07T06:21:54;4.47;;;2.38;;
72569;SDS011;60594;50.204;8.844;2023-05-07T06:24:23;4.97;;;2.60;;
72569;SDS011;60594;50.204;8.844;2023-05-07T06:26:50;4.47;;;2.60;;
72569;SDS011;60594;50.204;8.844;2023-05-07T06:29:17;4.97;;;2.70;;
72569;SDS011;60594;50.204;8.844;2023-05-07T06:31:44;4.68;;;2.50;;
72569;SDS011;60594;50.204;8.844;2023-05-07T06:34:11;4.82;;;2.70;;
72569;SDS011;60594;50.204;8.844;2023-05-07T06:36:41;5.40;;;2.78;;
72569;SDS011;60594;50.204;8.844;2023-05-07T06:39:36;4.90;;;2.88;;
72569;SDS011;60594;50.204;8.844;2023-05-07T06:42:03;5.15;;;2.83;;
72569;SDS011;60594;50.204;8.844;2023-05-07T06:44:32;4.88;;;2.78;;
72569;SDS011;60594;50.204;8.844;2023-05-07T06:47:05;5.72;;;2.78;;
72569;SDS011;60594;50.204;8.844;2023-05-07T06:49:32;4.40;;;2.58;;
72569;SDS011;60594;50.204;8.844;2023-05-07T06:51:59;5.45;;;2.90;;
72569;SDS011;60594;50.204;8.844;2023-05-07T06:54:26;4.43;;;2.80;;
72569;SDS011;60594;50.204;8.844;2023-05-07T06:56:53;5.68;;;3.13;;
72569;SDS011;60594;50.204;8.844;2023-05-07T06:59:19;5.18;;;2.70;;
72569;SDS011;60594;50.204;8.844;2023-05-07T07:01:48;5.90;;;3.10;;
72569;SDS011;60594;50.204;8.844;2023-05-07T07:04:14;5.35;;;2.88;;
72569;SDS011;60594;50.204;8.844;2023-05-07T07:06:43;5.40;;;3.13;;
72569;SDS011;60594;50.204;8.844;2023-05-07T07:09:12;5.25;;;3.10;;
72569;SDS011;60594;50.204;8.844;2023-05-07T07:11:40;5.65;;;3.40;;
72569;SDS011;60594;50.204;8.844;2023-05-07T07:14:07;4.82;;;3.20;;
72569;SDS011;60594;50.204;8.844;2023-05-07T07:16:40;5.65;;;3.50;;
72569;SDS011;60594;50.204;8.844;2023-05-07T07:19:07;5.43;;;3.50;;
72569;SDS011;60594;50.204;8.844;2023-05-07T07:21:34;5.97;;;3.67;;
72569;SDS011;60594;50.204;8.844;2023-05-07T07:24:00;5.55;;;3.50;;
72569;SDS011;60594;50.204;8.844;2023-05-07T07:26:27;6.53;;;3.70;;
72569;SDS011;60594;50.204;8.844;2023-05-07T07:28:54;6.40;;;3.60;;
72569;SDS011;60594;50.204;8.844;2023-05-07T07:31:22;5.03;;;3.13;;
72569;SDS011;60594;50.204;8.844;2023-05-07T07:33:50;5.00;;;3.13;;
72569;SDS011;60594;50.204;8.844;2023-05-07T07:36:17;5.63;;;3.53;;
72569;SDS011;60594;50.204;8.844;2023-05-07T07:38:44;5.65;;;3.40;;
72569;SDS011;60594;50.204;8.844;2023-05-07T07:41:11;5.40;;;3.38;;
72569;SDS011;60594;50.204;8.844;2023-05-07T07:43:37;5.43;;;3.70;;
72569;SDS011;60594;50.204;8.844;2023-05-07T07:46:04;4.97;;;3.47;;
72569;SDS011;60594;50.204;8.844;2023-05-07T07:48:31;5.82;;;3.55;;
72569;SDS011;60594;50.204;8.844;2023-05-07T07:50:59;5.90;;;3.38;;
72569;SDS011;60594;50.204;8.844;2023-05-07T07:53:25;6.18;;;3.97;;
72569;SDS011;60594;50.204;8.844;2023-05-07T07:55:52;7.25;;;3.70;;
72569;SDS011;60594;50.204;8.844;2023-05-07T07:58:22;6.05;;;3.63;;
72569;SDS011;60594;50.204;8.844;2023-05-07T08:00:48;5.65;;;3.35;;
72569;SDS011;60594;50.204;8.844;2023-05-07T08:03:15;6.13;;;3.50;;
72569;SDS011;60594;50.204;8.844;2023-05-07T08:05:45;5.22;;;3.50;;
72569;SDS011;60594;50.204;8.844;2023-05-07T08:08:12;5.90;;;3.50;;
72569;SDS011;60594;50.204;8.844;2023-05-07T08:10:41;5.68;;;3.60;;
72569;SDS011;60594;50.204;8.844;2023-05-07T08:13:14;5.32;;;3.40;;
72569;SDS011;60594;50.204;8.844;2023-05-07T08:15:42;5.65;;;3.90;;
72569;SDS011;60594;50.204;8.844;2023-05-07T08:18:10;5.53;;;3.42;;
72569;SDS011;60594;50.204;8.844;2023-05-07T08:20:36;5.53;;;3.72;;
72569;SDS011;60594;50.204;8.844;2023-05-07T08:23:06;5.40;;;3.45;;
72569;SDS011;60594;50.204;8.844;2023-05-07T08:25:34;5.78;;;3.85;;
72569;SDS011;60594;50.204;8.844;2023-05-07T08:28:01;5.97;;;4.20;;
72569;SDS011;60594;50.204;8.844;2023-05-07T08:30:29;8.82;;;3.85;;
72569;SDS011;60594;50.204;8.844;2023-05-07T08:32:56;6.18;;;3.88;;
72569;SDS011;60594;50.204;8.844;2023-05-07T08:35:23;6.45;;;4.00;;
72569;SDS011;60594;50.204;8.844;2023-05-07T08:37:49;5.90;;;3.80;;
72569;SDS011;60594;50.204;8.844;2023-05-07T08:40:18;5.78;;;3.80;;
72569;SDS011;60594;50.204;8.844;2023-05-07T08:42:45;7.00;;;4.07;;
72569;SDS011;60594;50.204;8.844;2023-05-07T08:45:15;5.80;;;4.15;;
72569;SDS011;60594;50.204;8.844;2023-05-07T08:47:47;7.72;;;3.78;;
72569;SDS011;60594;50.204;8.844;2023-05-07T08:50:22;5.70;;;3.72;;
72569;SDS011;60594;50.204;8.844;2023-05-07T08:52:49;5.88;;;3.80;;
72569;SDS011;60594;50.204;8.844;2023-05-07T08:57:44;6.07;;;4.32;;
72569;SDS011;60594;50.204;8.844;2023-05-07T09:00:12;6.88;;;3.97;;
72569;SDS011;60594;50.204;8.844;2023-05-07T09:02:40;5.85;;;3.50;;
72569;SDS011;60594;50.204;8.844;2023-05-07T09:10:03;6.35;;;4.20;;
72569;SDS011;60594;50.204;8.844;2023-05-07T09:12:32;6.78;;;4.38;;
72569;SDS011;60594;50.204;8.844;2023-05-07T09:15:01;6.00;;;4.28;;
72569;SDS011;60594;50.204;8.844;2023-05-07T09:17:31;7.38;;;4.22;;
72569;SDS011;60594;50.204;8.844;2023-05-07T09:20:04;5.90;;;3.55;;
72569;SDS011;60594;50.204;8.844;2023-05-07T09:22:32;6.95;;;4.10;;
72569;SDS011;60594;50.204;8.844;2023-05-07T09:25:04;7.00;;;3.83;;
72569;SDS011;60594;50.204;8.844;2023-05-07T09:27:45;6.13;;;3.70;;
72569;SDS011;60594;50.204;8.844;2023-05-07T09:30:12;6.30;;;4.18;;
72569;SDS011;60594;50.204;8.844;2023-05-07T09:32:39;5.63;;;3.90;;
72569;SDS011;60594;50.204;8.844;2023-05-07T09:35:09;5.97;;;3.78;;
72569;SDS011;60594;50.204;8.844;2023-05-07T09:37:41;6.03;;;4.05;;
72569;SDS011;60594;50.204;8.844;2023-05-07T09:40:19;6.35;;;4.25;;
72569;SDS011;60594;50.204;8.844;2023-05-07T09:42:47;5.95;;;3.83;;
72569;SDS011;60594;50.204;8.844;2023-05-07T09:45:16;6.20;;;4.60;;
72569;SDS011;60594;50.204;8.844;2023-05-07T09:47:48;5.50;;;3.83;;
72569;SDS011;60594;50.204;8.844;2023-05-07T09:50:18;5.97;;;3.80;;
72569;SDS011;60594;50.204;8.844;2023-05-07T09:52:45;6.60;;;4.00;;
72569;SDS011;60594;50.204;8.844;2023-05-07T09:55:13;7.10;;;4.20;;
72569;SDS011;60594;50.204;8.844;2023-05-07T09:57:42;6.28;;;4.20;;
72569;SDS011;60594;50.204;8.844;2023-05-07T10:02:50;5.13;;;3.50;;
72569;SDS011;60594;50.204;8.844;2023-05-07T10:07:51;5.63;;;3.72;;
72569;SDS011;60594;50.204;8.844;2023-05-07T10:10:20;6.20;;;4.00;;
72569;SDS011;60594;50.204;8.844;2023-05-07T10:12:47;6.07;;;4.05;;
72569;SDS011;60594;50.204;8.844;2023-05-07T10:15:26;5.65;;;3.67;;
72569;SDS011;60594;50.204;8.844;2023-05-07T10:17:56;6.10;;;3.85;;
72569;SDS011;60594;50.204;8.844;2023-05-07T10:20:24;5.90;;;3.78;;
72569;SDS011;60594;50.204;8.844;2023-05-07T10:22:55;6.10;;;3.45;;
72569;SDS011;60594;50.204;8.844;2023-05-07T10:25:28;5.93;;;3.88;;
72569;SDS011;60594;50.204;8.844;2023-05-07T10:28:01;5.70;;;3.60;;
72569;SDS011;60594;50.204;8.844;2023-05-07T10:33:29;6.38;;;3.80;;
72569;SDS011;60594;50.204;8.844;2023-05-07T10:35:58;7.47;;;4.78;;
72569;SDS011;60594;50.204;8.844;2023-05-07T10:38:27;5.70;;;3.50;;
72569;SDS011;60594;50.204;8.844;2023-05-07T10:40:54;5.68;;;3.25;;
72569;SDS011;60594;50.204;8.844;2023-05-07T10:43:21;6.32;;;3.47;;
72569;SDS011;60594;50.204;8.844;2023-05-07T10:46:09;5.32;;;3.42;;
72569;SDS011;60594;50.204;8.844;2023-05-07T10:49:22;6.25;;;3.67;;
72569;SDS011;60594;50.204;8.844;2023-05-07T10:51:27;5.05;;;3.65;;
72569;SDS011;60594;50.204;8.844;2023-05-07T10:56:45;5.57;;;3.60;;
72569;SDS011;60594;50.204;8.844;2023-05-07T11:04:34;6.22;;;3.22;;
72569;SDS011;60594;50.204;8.844;2023-05-07T11:07:26;5.18;;;3.30;;
72569;SDS011;60594;50.204;8.844;2023-05-07T11:09:58;5.15;;;3.50;;
72569;SDS011;60594;50.204;8.844;2023-05-07T11:15:34;7.95;;;3.65;;
72569;SDS011;60594;50.204;8.844;2023-05-07T11:18:05;5.50;;;3.25;;
72569;SDS011;60594;50.204;8.844;2023-05-07T11:26:25;5.75;;;3.33;;
72569;SDS011;60594;50.204;8.844;2023-05-07T11:28:53;5.15;;;3.20;;
72569;SDS011;60594;50.204;8.844;2023-05-07T11:31:22;7.18;;;3.63;;
72569;SDS011;60594;50.204;8.844;2023-05-07T11:33:51;6.95;;;3.60;;
72569;SDS011;60594;50.204;8.844;2023-05-07T11:36:21;4.63;;;2.97;;
72569;SDS011;60594;50.204;8.844;2023-05-07T11:38:51;5.68;;;3.47;;
72569;SDS011;60594;50.204;8.844;2023-05-07T11:41:17;5.32;;;3.10;;
72569;SDS011;60594;50.204;8.844;2023-05-07T11:43:58;5.45;;;3.10;;
72569;SDS011;60594;50.204;8.844;2023-05-07T11:46:26;4.80;;;3.17;;
72569;SDS011;60594;50.204;8.844;2023-05-07T11:48:54;5.47;;;3.03;;
72569;SDS011;60594;50.204;8.844;2023-05-07T11:51:22;5.05;;;3.00;;
72569;SDS011;60594;50.204;8.844;2023-05-07T11:54:06;5.03;;;3.15;;
72569;SDS011;60594;50.204;8.844;2023-05-07T11:56:34;5.40;;;3.30;;
72569;SDS011;60594;50.204;8.844;2023-05-07T11:59:05;4.75;;;2.97;;
72569;SDS011;60594;50.204;8.844;2023-05-07T12:01:32;5.03;;;2.90;;
72569;SDS011;60594;50.204;8.844;2023-05-07T12:04:02;4.53;;;2.90;;
72569;SDS011;60594;50.204;8.844;2023-05-07T12:06:29;4.78;;;2.80;;
72569;SDS011;60594;50.204;8.844;2023-05-07T12:08:57;5.03;;;3.20;;
72569;SDS011;60594;50.204;8.844;2023-05-07T12:11:24;4.38;;;2.90;;
72569;SDS011;60594;50.204;8.844;2023-05-07T12:13:53;4.68;;;3.05;;
72569;SDS011;60594;50.204;8.844;2023-05-07T12:16:20;4.50;;;2.70;;
72569;SDS011;60594;50.204;8.844;2023-05-07T12:18:47;4.75;;;2.95;;
72569;SDS011;60594;50.204;8.844;2023-05-07T12:21:14;4.38;;;2.90;;
72569;SDS011;60594;50.204;8.844;2023-05-07T12:23:43;8.15;;;3.85;;
72569;SDS011;60594;50.204;8.844;2023-05-07T12:26:10;5.15;;;2.88;;
72569;SDS011;60594;50.204;8.844;2023-05-07T12:28:37;4.57;;;3.55;;
72569;SDS011;60594;50.204;8.844;2023-05-07T12:33:31;4.50;;;3.15;;
72569;SDS011;60594;50.204;8.844;2023-05-07T12:35:58;4.50;;;2.78;;
72569;SDS011;60594;50.204;8.844;2023-05-07T12:38:33;4.72;;;2.80;;
72569;SDS011;60594;50.204;8.844;2023-05-07T12:41:01;5.45;;;2.90;;
72569;SDS011;60594;50.204;8.844;2023-05-07T12:43:28;4.78;;;2.97;;
72569;SDS011;60594;50.204;8.844;2023-05-07T12:45:56;4.40;;;2.97;;
72569;SDS011;60594;50.204;8.844;2023-05-07T12:48:25;4.57;;;2.92;;
72569;SDS011;60594;50.204;8.844;2023-05-07T12:51:01;5.55;;;2.75;;
72569;SDS011;60594;50.204;8.844;2023-05-07T12:53:29;4.55;;;2.72;;
72569;SDS011;60594;50.204;8.844;2023-05-07T12:55:57;5.70;;;2.80;;
72569;SDS011;60594;50.204;8.844;2023-05-07T12:58:26;5.75;;;3.17;;
72569;SDS011;60594;50.204;8.844;2023-05-07T13:00:54;5.05;;;2.50;;
72569;SDS011;60594;50.204;8.844;2023-05-07T13:03:25;3.90;;;2.60;;
72569;SDS011;60594;50.204;8.844;2023-05-07T13:05:57;4.63;;;2.88;;
72569;SDS011;60594;50.204;8.844;2023-05-07T13:08:33;4.95;;;2.97;;
72569;SDS011;60594;50.204;8.844;2023-05-07T13:11:01;4.60;;;2.60;;
72569;SDS011;60594;50.204;8.844;2023-05-07T13:13:34;4.20;;;2.47;;
72569;SDS011;60594;50.204;8.844;2023-05-07T13:16:01;4.32;;;2.50;;
72569;SDS011;60594;50.204;8.844;2023-05-07T13:18:29;3.78;;;2.20;;
72569;SDS011;60594;50.204;8.844;2023-05-07T13:23:23;5.72;;;2.30;;
72569;SDS011;60594;50.204;8.844;2023-05-07T13:25:50;4.30;;;2.60;;
72569;SDS011;60594;50.204;8.844;2023-05-07T13:33:10;4.82;;;2.33;;
72569;SDS011;60594;50.204;8.844;2023-05-07T13:35:37;4.50;;;2.58;;
72569;SDS011;60594;50.204;8.844;2023-05-07T13:38:04;4.40;;;2.42;;
72569;SDS011;60594;50.204;8.844;2023-05-07T13:40:30;4.05;;;2.40;;
72569;SDS011;60594;50.204;8.844;2023-05-07T13:43:00;4.13;;;3.17;;
72569;SDS011;60594;50.204;8.844;2023-05-07T13:45:29;4.30;;;2.28;;
72569;SDS011;60594;50.204;8.844;2023-05-07T13:47:56;4.05;;;2.10;;
72569;SDS011;60594;50.204;8.844;2023-05-07T13:50:23;4.10;;;2.28;;
72569;SDS011;60594;50.204;8.844;2023-05-07T13:52:50;3.70;;;2.17;;
72569;SDS011;60594;50.204;8.844;2023-05-07T13:55:17;4.93;;;2.63;;
72569;SDS011;60594;50.204;8.844;2023-05-07T13:57:44;4.72;;;2.53;;
72569;SDS011;60594;50.204;8.844;2023-05-07T14:00:11;4.38;;;2.38;;
72569;SDS011;60594;50.204;8.844;2023-05-07T14:02:41;4.40;;;2.50;;
72569;SDS011;60594;50.204;8.844;2023-05-07T14:05:08;4.70;;;2.67;;
72569;SDS011;60594;50.204;8.844;2023-05-07T14:07:36;3.90;;;2.33;;
72569;SDS011;60594;50.204;8.844;2023-05-07T14:10:02;4.07;;;2.60;;
72569;SDS011;60594;50.204;8.844;2023-05-07T14:14:57;4.00;;;2.25;;
72569;SDS011;60594;50.204;8.844;2023-05-07T14:17:23;4.10;;;2.60;;
72569;SDS011;60594;50.204;8.844;2023-05-07T14:19:52;5.28;;;2.33;;
72569;SDS011;60594;50.204;8.844;2023-05-07T14:22:22;4.38;;;1.85;;
72569;SDS011;60594;50.204;8.844;2023-05-07T14:24:49;3.80;;;2.00;;
72569;SDS011;60594;50.204;8.844;2023-05-07T14:27:16;4.03;;;1.73;;
72569;SDS011;60594;50.204;8.844;2023-05-07T14:29:43;5.28;;;2.13;;
72569;SDS011;60594;50.204;8.844;2023-05-07T14:32:11;4.35;;;1.90;;
72569;SDS011;60594;50.204;8.844;2023-05-07T14:34:38;3.30;;;1.90;;
72569;SDS011;60594;50.204;8.844;2023-05-07T14:37:04;3.75;;;2.13;;
72569;SDS011;60594;50.204;8.844;2023-05-07T14:39:31;3.97;;;2.97;;
72569;SDS011;60594;50.204;8.844;2023-05-07T14:41:57;3.30;;;1.92;;
72569;SDS011;60594;50.204;8.844;2023-05-07T14:44:24;4.20;;;2.10;;
72569;SDS011;60594;50.204;8.844;2023-05-07T14:46:51;3.88;;;1.90;;
72569;SDS011;60594;50.204;8.844;2023-05-07T14:49:17;4.15;;;2.17;;
72569;SDS011;60594;50.204;8.844;2023-05-07T14:51:44;3.80;;;2.00;;
72569;SDS011;60594;50.204;8.844;2023-05-07T14:54:12;3.60;;;1.70;;
72569;SDS011;60594;50.204;8.844;2023-05-07T14:56:39;3.53;;;2.00;;
72569;SDS011;60594;50.204;8.844;2023-05-07T15:01:34;3.70;;;2.20;;
72569;SDS011;60594;50.204;8.844;2023-05-07T15:06:31;4.28;;;2.03;;
72569;SDS011;60594;50.204;8.844;2023-05-07T15:08:58;3.83;;;2.08;;
72569;SDS011;60594;50.204;8.844;2023-05-07T15:11:24;3.55;;;2.05;;
72569;SDS011;60594;50.204;8.844;2023-05-07T15:13:51;5.18;;;2.10;;
72569;SDS011;60594;50.204;8.844;2023-05-07T15:16:18;3.85;;;2.08;;
72569;SDS011;60594;50.204;8.844;2023-05-07T15:18:44;3.92;;;2.22;;
72569;SDS011;60594;50.204;8.844;2023-05-07T15:21:11;3.60;;;2.03;;
72569;SDS011;60594;50.204;8.844;2023-05-07T15:26:07;3.53;;;2.00;;
72569;SDS011;60594;50.204;8.844;2023-05-07T15:28:34;4.57;;;2.72;;
72569;SDS011;60594;50.204;8.844;2023-05-07T15:31:01;3.95;;;2.25;;
72569;SDS011;60594;50.204;8.844;2023-05-07T15:33:27;4.20;;;2.28;;
72569;SDS011;60594;50.204;8.844;2023-05-07T15:35:54;3.97;;;2.28;;
72569;SDS011;60594;50.204;8.844;2023-05-07T15:38:25;4.72;;;2.40;;
72569;SDS011;60594;50.204;8.844;2023-05-07T15:40:52;4.72;;;2.40;;
72569;SDS011;60594;50.204;8.844;2023-05-07T15:43:19;4.05;;;2.45;;
72569;SDS011;60594;50.204;8.844;2023-05-07T15:45:46;4.10;;;2.20;;
72569;SDS011;60594;50.204;8.844;2023-05-07T15:48:12;4.85;;;2.55;;
72569;SDS011;60594;50.204;8.844;2023-05-07T15:50:39;5.60;;;2.47;;
72569;SDS011;60594;50.204;8.844;2023-05-07T15:53:05;4.20;;;2.13;;